createdAt,value
2019-01-13T00:02:29.797Z,32.30
2019-01-13T00:05:01.140Z,31.57
2019-01-13T00:07:32.396Z,30.33
2019-01-13T00:10:03.880Z,31.30
2019-01-13T00:12:35.605Z,30.20
2019-01-13T00:15:07.632Z,31.17
2019-01-13T00:17:39.060Z,32.50
2019-01-13T00:20:10.637Z,31.27
2019-01-13T00:22:41.874Z,29.60
2019-01-13T00:25:13.216Z,28.47
2019-01-13T00:27:44.246Z,28.47
2019-01-13T00:30:19.368Z,28.20
2019-01-13T00:32:48.997Z,27.40
2019-01-13T00:35:20.277Z,27.43
2019-01-13T00:37:51.497Z,27.00
2019-01-13T00:40:22.894Z,27.03
2019-01-13T00:42:54.062Z,27.63
2019-01-13T00:45:25.256Z,27.50
2019-01-13T00:47:56.538Z,28.03
2019-01-13T00:50:27.756Z,26.87
2019-01-13T00:52:58.911Z,26.63
2019-01-13T00:55:30.112Z,27.13
2019-01-13T00:58:01.505Z,26.07
2019-01-13T01:00:32.727Z,27.30
2019-01-13T01:03:05.452Z,27.60
2019-01-13T01:05:37.669Z,31.13
2019-01-13T01:08:09.420Z,31.37
2019-01-13T01:10:40.759Z,29.07
2019-01-13T01:13:12.037Z,30.33
2019-01-13T01:15:43.258Z,29.23
2019-01-13T01:18:14.505Z,29.60
2019-01-13T01:20:45.864Z,29.60
2019-01-13T01:23:17.063Z,30.27
2019-01-13T01:25:49.667Z,32.23
2019-01-13T01:28:20.933Z,30.27
2019-01-13T01:30:52.239Z,30.87
2019-01-13T01:33:26.125Z,31.03
2019-01-13T01:35:57.531Z,30.77
2019-01-13T01:38:28.842Z,31.43
2019-01-13T01:40:59.996Z,32.03
2019-01-13T01:43:31.268Z,31.97
2019-01-13T01:46:03.737Z,32.63
2019-01-13T01:48:34.870Z,33.73
2019-01-13T01:51:06.183Z,37.20
2019-01-13T01:53:37.278Z,31.00
2019-01-13T01:56:09.842Z,29.97
2019-01-13T01:58:41.144Z,29.23
2019-01-13T02:01:12.414Z,27.83
2019-01-13T02:03:43.568Z,27.67
2019-01-13T02:06:14.865Z,28.50
2019-01-13T02:08:46.155Z,28.97
2019-01-13T02:11:17.428Z,29.37
2019-01-13T02:13:49.534Z,34.10
2019-01-13T02:16:20.796Z,34.83
2019-01-13T02:18:52.173Z,38.67
2019-01-13T02:21:23.319Z,37.63
2019-01-13T02:23:54.504Z,36.97
2019-01-13T02:26:25.892Z,36.27
2019-01-13T02:28:57.151Z,34.53
2019-01-13T02:31:28.431Z,35.67
2019-01-13T02:33:59.726Z,36.53
2019-01-13T02:36:30.890Z,38.17
2019-01-13T02:39:02.146Z,36.77
2019-01-13T02:41:34.880Z,38.50
2019-01-13T02:44:06.375Z,35.80
2019-01-13T02:46:37.672Z,35.70
2019-01-13T02:49:08.686Z,35.57
2019-01-13T02:51:39.996Z,32.07
2019-01-13T02:54:11.213Z,33.50
2019-01-13T02:56:43.999Z,34.20
2019-01-13T02:59:16.341Z,33.07
2019-01-13T03:01:49.086Z,31.93
2019-01-13T03:04:20.196Z,32.20
2019-01-13T03:06:51.286Z,32.23
2019-01-13T03:09:22.714Z,31.33
2019-01-13T03:11:53.967Z,29.60
2019-01-13T03:14:25.274Z,27.87
2019-01-13T03:16:56.560Z,25.10
2019-01-13T03:19:27.728Z,23.27
2019-01-13T03:21:59.270Z,22.40
2019-01-13T03:24:30.659Z,21.53
2019-01-13T03:27:02.022Z,22.77
2019-01-13T03:29:33.256Z,22.80
2019-01-13T03:32:04.703Z,20.93
2019-01-13T03:34:35.900Z,21.47
2019-01-13T03:37:07.223Z,22.17
2019-01-13T03:39:38.586Z,22.33
2019-01-13T03:42:09.939Z,20.47
2019-01-13T03:44:41.203Z,20.90
2019-01-13T03:47:12.468Z,21.27
2019-01-13T03:49:43.693Z,20.33
2019-01-13T03:52:14.991Z,20.40
2019-01-13T03:54:46.259Z,23.97
2019-01-13T03:57:17.435Z,25.40
2019-01-13T03:59:48.670Z,27.03
2019-01-13T04:02:20.041Z,27.80
2019-01-13T04:04:51.269Z,25.97
2019-01-13T04:07:22.615Z,25.03
2019-01-13T04:09:53.909Z,26.70
2019-01-13T04:12:25.080Z,26.90
2019-01-13T04:14:56.255Z,26.63
2019-01-13T04:17:28.405Z,29.07
2019-01-13T04:19:59.746Z,28.83
2019-01-13T04:22:31.230Z,28.00
2019-01-13T04:25:02.340Z,26.47
2019-01-13T04:27:33.711Z,29.00
2019-01-13T04:30:05.958Z,28.03
2019-01-13T04:32:37.286Z,25.57
2019-01-13T04:35:09.271Z,24.70
2019-01-13T04:37:40.632Z,21.83
2019-01-13T04:40:11.943Z,21.10
2019-01-13T04:42:43.355Z,19.00
2019-01-13T04:45:14.780Z,19.83
2019-01-13T04:47:45.910Z,19.17
2019-01-13T04:50:17.283Z,18.70
2019-01-13T04:52:48.580Z,17.13
2019-01-13T04:55:19.829Z,18.17
2019-01-13T04:57:51.138Z,23.93
2019-01-13T05:00:22.448Z,40.03
2019-01-13T05:02:53.824Z,20.57
2019-01-13T05:05:24.937Z,21.47
2019-01-13T05:07:56.297Z,27.63
2019-01-13T05:10:29.741Z,24.17
2019-01-13T05:13:01.018Z,20.97
2019-01-13T05:15:32.349Z,19.87
2019-01-13T05:18:03.686Z,19.10
2019-01-13T05:20:35.114Z,18.93
2019-01-13T05:23:06.315Z,20.43
2019-01-13T05:25:37.510Z,21.07
2019-01-13T05:28:08.698Z,37.97
2019-01-13T05:30:40.043Z,23.90
2019-01-13T05:33:11.444Z,24.23
2019-01-13T05:35:42.690Z,20.60
2019-01-13T05:38:13.933Z,21.33
2019-01-13T05:40:45.180Z,23.97
2019-01-13T05:43:16.295Z,30.33
2019-01-13T05:45:47.481Z,31.23
2019-01-13T05:48:18.669Z,40.07
2019-01-13T05:50:50.017Z,22.60
2019-01-13T05:53:21.341Z,22.47
2019-01-13T05:55:52.466Z,21.90
2019-01-13T05:58:24.742Z,22.63
2019-01-13T06:00:55.837Z,23.90
2019-01-13T06:03:27.214Z,25.40
2019-01-13T06:05:58.538Z,42.40
2019-01-13T06:08:29.790Z,20.20
2019-01-13T06:11:01.120Z,22.20
2019-01-13T06:13:32.372Z,20.20
2019-01-13T06:16:04.004Z,24.30
2019-01-13T06:18:35.304Z,22.30
2019-01-13T06:21:06.574Z,22.73
2019-01-13T06:23:37.870Z,20.70
2019-01-13T06:26:09.141Z,19.33
2019-01-13T06:28:40.415Z,19.23
2019-01-13T06:31:11.538Z,18.87
2019-01-13T06:33:42.945Z,18.83
2019-01-13T06:36:14.422Z,19.30
2019-01-13T06:38:45.549Z,20.23
2019-01-13T06:41:16.825Z,19.83
2019-01-13T06:43:48.124Z,21.57
2019-01-13T06:46:19.616Z,34.87
2019-01-13T06:48:50.852Z,32.33
2019-01-13T06:51:22.084Z,31.07
2019-01-13T06:53:53.429Z,33.63
2019-01-13T06:56:24.806Z,32.07
2019-01-13T06:58:56.217Z,32.43
2019-01-13T07:01:27.409Z,27.27
2019-01-13T07:03:58.700Z,25.60
2019-01-13T07:06:30.005Z,24.83
2019-01-13T07:09:01.252Z,20.90
2019-01-13T07:11:32.537Z,20.03
2019-01-13T07:14:03.723Z,21.30
2019-01-13T07:16:37.216Z,20.90
2019-01-13T07:19:08.467Z,21.20
2019-01-13T07:21:39.678Z,21.03
2019-01-13T07:24:11.053Z,22.23
2019-01-13T07:26:42.312Z,22.33
2019-01-13T07:29:13.512Z,18.83
2019-01-13T07:31:44.782Z,22.85
2019-01-13T07:34:16.088Z,22.33
2019-01-13T07:36:47.455Z,16.73
2019-01-13T07:39:18.585Z,16.07
2019-01-13T07:41:49.801Z,17.77
2019-01-13T07:44:21.034Z,17.13
2019-01-13T07:46:52.452Z,16.30
2019-01-13T07:49:23.630Z,17.47
2019-01-13T07:51:56.513Z,17.77
2019-01-13T07:54:30.246Z,16.33
2019-01-13T07:57:02.785Z,16.70
2019-01-13T07:59:35.835Z,17.07
2019-01-13T08:02:07.234Z,17.77
2019-01-13T08:04:38.469Z,16.80
2019-01-13T08:07:09.768Z,15.30
2019-01-13T08:09:41.041Z,15.60
2019-01-13T08:12:12.312Z,16.83
2019-01-13T08:14:43.466Z,16.13
2019-01-13T08:17:14.870Z,16.97
2019-01-13T08:19:46.080Z,41.77
2019-01-13T08:22:17.381Z,20.70
2019-01-13T08:24:48.822Z,22.97
2019-01-13T08:27:20.153Z,21.50
2019-01-13T08:29:51.431Z,25.23
2019-01-13T08:32:25.099Z,27.73
2019-01-13T08:34:55.490Z,27.80
2019-01-13T08:37:26.706Z,33.60
2019-01-13T08:39:57.897Z,27.07
2019-01-13T08:42:29.111Z,27.00
2019-01-13T08:45:00.450Z,25.60
2019-01-13T08:47:31.537Z,22.43
2019-01-13T08:50:03.028Z,22.17
2019-01-13T08:52:34.525Z,19.80
2019-01-13T08:55:06.780Z,20.50
2019-01-13T08:57:38.080Z,20.03
2019-01-13T09:00:31.551Z,21.23
2019-01-13T09:03:03.936Z,20.97
2019-01-13T09:05:35.272Z,20.87
2019-01-13T09:08:07.597Z,21.87
2019-01-13T09:10:39.056Z,19.43
2019-01-13T09:13:10.264Z,19.60
2019-01-13T09:15:41.641Z,20.50
2019-01-13T09:18:13.226Z,19.33
2019-01-13T09:20:44.366Z,19.60
2019-01-13T09:23:15.669Z,20.13
2019-01-13T09:25:46.911Z,20.50
2019-01-13T09:28:18.231Z,20.17
2019-01-13T09:30:49.456Z,20.80
2019-01-13T09:33:20.752Z,19.13
2019-01-13T09:35:52.138Z,19.63
2019-01-13T09:38:23.385Z,20.57
2019-01-13T09:40:55.632Z,23.30
2019-01-13T09:43:26.937Z,24.47
2019-01-13T09:45:58.102Z,26.80
2019-01-13T09:48:29.424Z,28.23
2019-01-13T09:51:00.797Z,32.97
2019-01-13T09:53:31.937Z,28.40
2019-01-13T09:56:04.310Z,32.53
2019-01-13T09:58:35.490Z,28.43
2019-01-13T10:01:06.817Z,27.53
2019-01-13T10:03:38.025Z,25.33
2019-01-13T10:06:10.133Z,24.37
2019-01-13T10:08:41.459Z,21.57
2019-01-13T10:11:12.590Z,21.77
2019-01-13T10:14:28.119Z,20.77
2019-01-13T10:20:26.925Z,17.43
2019-01-13T10:25:46.324Z,28.53
2019-01-13T10:28:17.768Z,24.50
2019-01-13T10:30:49.182Z,18.23
2019-01-13T10:33:20.430Z,18.53
2019-01-13T10:35:51.795Z,24.60
2019-01-13T10:38:23.000Z,24.07
2019-01-13T10:40:54.438Z,25.60
2019-01-13T10:43:26.615Z,25.00
2019-01-13T10:45:57.963Z,24.60
2019-01-13T10:48:30.417Z,24.80
2019-01-13T10:51:01.798Z,23.20
2019-01-13T10:53:34.195Z,24.50
2019-01-13T10:56:05.530Z,23.30
2019-01-13T10:58:36.721Z,25.67
2019-01-13T11:01:07.831Z,22.23
2019-01-13T11:03:39.128Z,20.80
2019-01-13T11:06:10.466Z,21.27
2019-01-13T11:08:41.678Z,23.90
2019-01-13T11:11:12.790Z,24.53
2019-01-13T11:13:43.946Z,25.77
2019-01-13T11:16:15.314Z,22.87
2019-01-13T11:18:46.544Z,20.27
2019-01-13T11:21:17.867Z,21.00
2019-01-13T11:23:49.022Z,19.90
2019-01-13T11:26:20.196Z,19.53
2019-01-13T11:28:51.482Z,20.20
2019-01-13T11:31:22.822Z,19.37
2019-01-13T11:33:54.112Z,22.13
2019-01-13T11:36:25.344Z,20.53
2019-01-13T11:38:56.784Z,21.03
2019-01-13T11:41:27.925Z,22.27
2019-01-13T11:43:59.169Z,22.07
2019-01-13T11:46:30.604Z,24.37
2019-01-13T11:49:01.860Z,23.33
2019-01-13T11:51:32.977Z,23.37
2019-01-13T11:54:04.287Z,25.00
2019-01-13T11:56:35.636Z,25.20
2019-01-13T11:59:06.928Z,25.30
2019-01-13T12:01:38.163Z,25.57
2019-01-13T12:04:09.479Z,27.50
2019-01-13T12:06:40.691Z,28.50
2019-01-13T12:09:11.850Z,30.17
2019-01-13T12:11:43.072Z,30.33
2019-01-13T12:14:14.457Z,29.77
2019-01-13T12:16:45.810Z,29.60
2019-01-13T12:19:16.945Z,28.40
2019-01-13T12:21:48.259Z,25.83
2019-01-13T12:24:19.626Z,26.57
2019-01-13T12:26:51.000Z,24.17
2019-01-13T12:29:22.193Z,23.67
2019-01-13T12:31:53.301Z,22.53
2019-01-13T12:34:24.746Z,22.73
2019-01-13T12:36:56.030Z,20.27
2019-01-13T12:39:27.313Z,18.00
2019-01-13T12:41:58.533Z,18.63
2019-01-13T12:44:29.767Z,16.40
2019-01-13T12:47:01.306Z,17.00
2019-01-13T12:49:32.698Z,18.23
2019-01-13T12:52:04.021Z,15.90
2019-01-13T12:54:35.190Z,18.63
2019-01-13T12:57:06.249Z,49.80
2019-01-13T12:59:37.607Z,26.33
2019-01-13T13:02:08.998Z,20.33
2019-01-13T13:04:40.339Z,20.43
2019-01-13T13:07:11.542Z,19.80
2019-01-13T13:09:42.793Z,20.63
2019-01-13T13:12:13.796Z,19.50
2019-01-13T13:14:44.903Z,19.10
2019-01-13T13:17:16.131Z,20.93
2019-01-13T13:19:47.409Z,19.43
2019-01-13T13:22:18.557Z,19.30
2019-01-13T13:24:49.848Z,21.50
2019-01-13T13:27:21.137Z,21.13
2019-01-13T13:29:52.575Z,21.53
2019-01-13T13:32:23.863Z,21.50
2019-01-13T13:34:55.850Z,21.97
2019-01-13T13:37:27.036Z,21.63
2019-01-13T13:39:58.256Z,22.67
2019-01-13T13:42:30.660Z,21.63
2019-01-13T13:45:03.026Z,23.83
2019-01-13T13:47:34.354Z,23.27
2019-01-13T13:50:07.884Z,37.30
2019-01-13T13:52:39.342Z,40.40
2019-01-13T13:55:11.294Z,49.00
2019-01-13T13:57:42.777Z,35.60
2019-01-13T14:00:20.547Z,35.27
2019-01-13T14:02:51.959Z,51.73
2019-01-13T14:05:24.610Z,32.03
2019-01-13T14:07:57.152Z,24.70
2019-01-13T14:10:39.914Z,29.50
2019-01-13T14:13:11.286Z,38.73
2019-01-13T14:15:42.681Z,23.80
2019-01-13T14:18:15.994Z,22.63
2019-01-13T14:20:47.226Z,25.30
2019-01-13T14:23:18.504Z,25.00
2019-01-13T14:25:49.818Z,24.63
2019-01-13T14:28:21.157Z,55.87
2019-01-13T14:30:52.468Z,85.80
2019-01-13T14:33:25.347Z,29.87
2019-01-13T14:35:56.809Z,28.90
2019-01-13T14:38:28.083Z,30.93
2019-01-13T14:40:59.677Z,31.33
2019-01-13T14:43:30.825Z,33.93
2019-01-13T14:46:02.293Z,32.57
2019-01-13T14:48:33.784Z,46.10
2019-01-13T14:51:05.255Z,36.27
2019-01-13T14:53:36.602Z,40.00
2019-01-13T14:56:07.909Z,44.60
2019-01-13T14:58:39.124Z,45.83
2019-01-13T15:01:10.684Z,48.03
2019-01-13T15:03:41.898Z,47.07
2019-01-13T15:06:13.087Z,48.43
2019-01-13T15:08:44.356Z,48.30
2019-01-13T15:11:15.808Z,49.50
2019-01-13T15:13:47.034Z,49.00
2019-01-13T15:16:18.323Z,81.10
2019-01-13T15:18:49.430Z,49.83
2019-01-13T15:21:20.833Z,46.47
2019-01-13T15:23:52.092Z,39.27
2019-01-13T15:26:23.290Z,36.93
2019-01-13T15:28:54.678Z,35.93
2019-01-13T15:31:25.986Z,37.50
2019-01-13T15:33:57.610Z,38.20
2019-01-13T15:36:28.961Z,38.60
2019-01-13T15:39:00.234Z,38.70
2019-01-13T15:41:31.571Z,37.43
2019-01-13T15:44:02.699Z,36.73
2019-01-13T15:46:34.089Z,37.70
2019-01-13T15:49:05.590Z,39.37
2019-01-13T15:51:36.943Z,38.47
2019-01-13T15:54:08.418Z,36.07
2019-01-13T15:56:39.684Z,52.10
2019-01-13T15:59:10.993Z,57.10
2019-01-13T16:01:42.406Z,41.73
2019-01-13T16:04:14.751Z,37.47
2019-01-13T16:06:46.141Z,38.07
2019-01-13T16:09:17.437Z,38.03
2019-01-13T16:11:48.666Z,37.93
2019-01-13T16:14:20.117Z,38.30
2019-01-13T16:16:51.312Z,37.73
2019-01-13T16:19:22.373Z,38.10
2019-01-13T16:21:53.823Z,38.80
2019-01-13T16:24:25.149Z,38.43
2019-01-13T16:26:56.354Z,38.43
2019-01-13T16:29:27.755Z,36.90
2019-01-13T16:31:58.945Z,37.20
2019-01-13T16:34:30.201Z,38.20
2019-01-13T16:37:01.483Z,40.87
2019-01-13T16:39:32.696Z,46.80
2019-01-13T16:42:04.121Z,77.10
2019-01-13T16:44:35.163Z,54.17
2019-01-13T16:47:08.657Z,61.53
2019-01-13T16:49:40.030Z,60.13
2019-01-13T16:52:11.533Z,103.33
2019-01-13T16:54:42.910Z,68.50
2019-01-13T16:57:14.370Z,69.47
2019-01-13T16:59:45.796Z,69.23
2019-01-13T17:02:17.080Z,62.97
2019-01-13T17:04:48.316Z,57.70
2019-01-13T17:07:19.603Z,57.07
2019-01-13T17:09:50.899Z,56.40
2019-01-13T17:12:22.037Z,57.87
2019-01-13T17:14:53.215Z,59.33
2019-01-13T17:17:24.532Z,60.10
2019-01-13T17:19:55.742Z,59.47
2019-01-13T17:22:27.046Z,59.47
2019-01-13T17:24:58.205Z,57.73
2019-01-13T17:27:29.476Z,58.77
2019-01-13T17:30:00.742Z,59.53
2019-01-13T17:32:32.026Z,58.10
2019-01-13T17:35:03.416Z,59.70
2019-01-13T17:37:34.764Z,57.40
2019-01-13T17:40:07.525Z,54.23
2019-01-13T17:42:39.032Z,53.80
2019-01-13T17:45:13.071Z,55.40
2019-01-13T17:47:44.593Z,57.73
2019-01-13T17:50:17.618Z,76.87
2019-01-13T17:52:48.946Z,79.43
2019-01-13T17:55:24.671Z,54.43
2019-01-13T17:57:55.994Z,65.00
2019-01-13T18:00:35.728Z,59.00
2019-01-13T18:03:07.615Z,54.70
2019-01-13T18:05:38.956Z,52.57
2019-01-13T18:08:10.025Z,51.67
2019-01-13T18:10:41.178Z,54.63
2019-01-13T18:13:12.591Z,55.70
2019-01-13T18:15:44.012Z,68.40
2019-01-13T18:18:15.282Z,102.43
2019-01-13T18:20:46.296Z,95.17
2019-01-13T18:23:17.480Z,85.43
2019-01-13T18:25:48.821Z,104.00
2019-01-13T18:28:20.178Z,127.93
2019-01-13T18:30:51.586Z,114.60
2019-01-13T18:33:22.779Z,121.27
2019-01-13T18:35:54.128Z,134.93
2019-01-13T18:38:25.673Z,146.77
2019-01-13T18:40:56.932Z,155.30
2019-01-13T18:43:28.264Z,171.67
2019-01-13T18:45:59.600Z,169.67
2019-01-13T18:48:31.034Z,150.33
2019-01-13T18:51:02.379Z,158.43
2019-01-13T18:53:33.769Z,151.60
2019-01-13T18:56:05.243Z,151.87
2019-01-13T18:58:36.402Z,140.90
2019-01-13T19:01:07.859Z,143.23
2019-01-13T19:03:39.104Z,141.87
2019-01-13T19:06:12.846Z,141.27
2019-01-13T19:08:44.343Z,140.77
2019-01-13T19:11:31.022Z,149.17
2019-01-13T19:14:20.218Z,144.37
2019-01-13T19:17:00.871Z,142.20
2019-01-13T19:19:42.028Z,128.33
2019-01-13T19:22:13.179Z,132.13
2019-01-13T19:24:44.526Z,128.77
2019-01-13T19:27:15.845Z,131.73
2019-01-13T19:29:46.940Z,121.27
2019-01-13T19:32:18.162Z,124.90
2019-01-13T19:34:49.475Z,120.83
2019-01-13T19:37:20.910Z,122.43
2019-01-13T19:39:52.225Z,121.23
2019-01-13T19:42:24.246Z,121.13
2019-01-13T19:44:55.540Z,122.90
2019-01-13T19:47:26.832Z,122.73
2019-01-13T19:49:58.061Z,119.17
2019-01-13T19:52:29.366Z,120.73
2019-01-13T19:55:00.689Z,122.67
2019-01-13T19:57:32.002Z,117.57
2019-01-13T20:00:03.213Z,121.77
2019-01-13T20:02:34.650Z,119.33
2019-01-13T20:05:11.772Z,126.20
2019-01-13T20:07:39.629Z,143.17
2019-01-13T20:10:11.083Z,149.80
2019-01-13T20:12:42.218Z,150.07
2019-01-13T20:15:14.365Z,148.10
2019-01-13T20:17:45.550Z,151.57
2019-01-13T20:20:17.373Z,143.30
2019-01-13T20:22:48.521Z,153.73
2019-01-13T20:25:19.844Z,148.67
2019-01-13T20:27:52.775Z,124.20
2019-01-13T20:30:26.525Z,111.43
2019-01-13T20:32:58.129Z,111.90
2019-01-13T20:35:30.620Z,121.23
2019-01-13T20:38:02.083Z,110.57
2019-01-13T20:40:33.601Z,112.30
2019-01-13T20:43:05.289Z,136.07
2019-01-13T20:45:39.568Z,144.00
2019-01-13T20:48:10.814Z,141.90
2019-01-13T20:50:42.130Z,150.00
2019-01-13T20:53:13.675Z,159.43
2019-01-13T20:55:45.135Z,162.43
2019-01-13T20:58:17.507Z,162.03
2019-01-13T21:00:49.198Z,159.90
2019-01-13T21:03:20.703Z,162.43
2019-01-13T21:05:52.264Z,150.57
2019-01-13T21:08:23.652Z,152.67
2019-01-13T21:10:55.077Z,158.90
2019-01-13T21:13:26.242Z,183.43
2019-01-13T21:15:58.499Z,168.30
2019-01-13T21:18:29.807Z,157.53
2019-01-13T21:21:01.173Z,143.70
2019-01-13T21:23:32.229Z,113.37
2019-01-13T21:26:03.563Z,110.00
2019-01-13T21:28:34.846Z,132.03
2019-01-13T21:31:06.217Z,129.23
2019-01-13T21:33:37.594Z,122.50
2019-01-13T21:36:08.779Z,102.43
2019-01-13T21:38:40.104Z,100.53
2019-01-13T21:41:11.391Z,91.23
2019-01-13T21:43:42.592Z,74.30
2019-01-13T21:46:14.997Z,104.90
2019-01-13T21:48:46.187Z,116.10
2019-01-13T21:51:17.367Z,136.10
2019-01-13T21:53:48.621Z,129.57
2019-01-13T21:56:19.809Z,130.23
2019-01-13T21:58:51.023Z,124.57
2019-01-13T22:01:22.378Z,129.17
2019-01-13T22:03:53.603Z,117.50
2019-01-13T22:06:24.864Z,117.77
2019-01-13T22:08:56.432Z,116.30
2019-01-13T22:11:27.892Z,116.97
2019-01-13T22:13:59.168Z,118.33
2019-01-13T22:16:30.762Z,111.90
2019-01-13T22:19:02.250Z,109.40
2019-01-13T22:21:33.440Z,117.37
2019-01-13T22:24:05.859Z,115.70
2019-01-13T22:26:37.117Z,102.20
2019-01-13T22:29:08.381Z,91.60
2019-01-13T22:31:39.725Z,82.20
2019-01-13T22:34:11.096Z,80.07
2019-01-13T22:36:42.355Z,67.93
2019-01-13T22:39:13.775Z,89.47
2019-01-13T22:41:45.277Z,90.23
2019-01-13T22:44:16.557Z,63.93
2019-01-13T22:46:48.039Z,64.40
2019-01-13T22:49:19.237Z,66.87
2019-01-13T22:51:50.606Z,64.43
2019-01-13T22:54:21.854Z,49.47
2019-01-13T22:56:53.224Z,35.73
2019-01-13T22:59:24.334Z,33.63
2019-01-13T23:01:55.740Z,32.10
2019-01-13T23:04:27.002Z,40.87
2019-01-13T23:06:58.387Z,34.87
2019-01-13T23:09:29.438Z,34.47
2019-01-13T23:12:00.752Z,34.80
2019-01-13T23:14:32.218Z,35.80
2019-01-13T23:17:03.463Z,34.17
2019-01-13T23:19:34.698Z,34.30
2019-01-13T23:22:06.082Z,36.63
2019-01-13T23:24:37.310Z,37.00
2019-01-13T23:27:08.574Z,32.97
2019-01-13T23:29:39.833Z,33.20
2019-01-13T23:32:11.249Z,32.67
2019-01-13T23:34:42.559Z,30.53
2019-01-13T23:37:13.758Z,29.33
2019-01-13T23:39:44.990Z,31.63
2019-01-13T23:42:16.381Z,32.63
2019-01-13T23:44:47.575Z,28.90
2019-01-13T23:47:18.890Z,30.77
2019-01-13T23:49:50.138Z,26.27
2019-01-13T23:52:21.336Z,24.87
2019-01-13T23:54:52.561Z,26.27
2019-01-13T23:57:23.826Z,24.37
2019-01-13T23:59:55.389Z,23.20
